Airfield :
LOGIN :

Register | Disclaimer

   EN    FR    IT 

 










Legend :    VFR   Marginal VFR   IFR   Intensive IFR   Very Intensive IFR
Visi :
Ceiling :
>= 8 km
>= 3000ft
5 to 8 km
1000 to 3000 ft
1500m to 5 km
500 to 1000 ft
800 to 1500m
200 to 500 ft
< 800m
< 200 ft
Symbols :   Thunderstorms  Fog  Heavy snow  Heavy precipitations  Wind > 20 kt
SIGMETs :     Misc.  Thunderstorms  Icing  Turbulence  Mountain Waves  Volcanic Ashes






- Airport Elevation : 876 ft
- IATA code : MBX


LJMB - Maribor

CURRENT METAR :
  • 300230Z AUTO 02004KT 6000 -SHRA OVC009/// 02/01 Q1021

EXPIRED METARs :
  • 300200Z AUTO 03004KT 7000 -SHUP OVC010/// 03/01 Q1021
  • 300130Z AUTO 36005KT 7000 -SHRA FEW010/// OVC022/// 03/01 Q1021
  • 300100Z AUTO 01005KT 8000 OVC010/// 03/01 Q1021
  • 300030Z AUTO 02005KT 8000 OVC010/// 03/01 Q1021

TAF TAF LJMB
Valid from the 30 at 00:00 until the 01 at 00:00 UTC


292300Z 3000/0100 02005KT 6000 OVC010
PROB40
TEMPO 3001/0100 2000 -RASN BR OVC005



MET'MAP, your aeronautical weather chart ! - Copyright ORBIFLY December 2007 - Disclaimer

ORBIFLY MET'MAP TEAM :

Programming & Development : Alexandra Zaïnal
Original concept : Baudouin d'Aumeries
Technical & hardware support : Manuel Goepfert
Assistance : Marc-Olivier Méhu




SOURCES & CREDITS :

   NOAA